sensor_id;sensor_type;location;lat;lon;timestamp;pressure;altitude;pressure_sealevel;temperature;humidity
69911;BME280;63555;49.920;17.868;2023-03-24T00:01:08;98118.19;;;13.41;57.33
69911;BME280;63555;49.920;17.868;2023-03-24T00:06:09;98105.06;;;13.22;57.95
69911;BME280;63555;49.920;17.868;2023-03-24T00:11:13;98101.53;;;13.03;58.24
69911;BME280;63555;49.920;17.868;2023-03-24T00:16:14;98090.72;;;12.87;58.81
69911;BME280;63555;49.920;17.868;2023-03-24T00:21:16;98096.09;;;12.68;59.25
69911;BME280;63555;49.920;17.868;2023-03-24T00:26:17;98099.25;;;12.44;59.86
69911;BME280;63555;49.920;17.868;2023-03-24T00:31:18;98099.03;;;12.18;60.34
69911;BME280;63555;49.920;17.868;2023-03-24T00:36:20;98084.72;;;11.92;60.92
69911;BME280;63555;49.920;17.868;2023-03-24T00:41:22;98081.38;;;11.70;61.38
69911;BME280;63555;49.920;17.868;2023-03-24T00:46:24;98072.34;;;11.54;61.90
69911;BME280;63555;49.920;17.868;2023-03-24T00:51:32;98055.38;;;11.37;62.15
69911;BME280;63555;49.920;17.868;2023-03-24T00:56:34;98055.06;;;11.21;62.71
69911;BME280;63555;49.920;17.868;2023-03-24T01:01:37;98063.09;;;11.09;63.17
69911;BME280;63555;49.920;17.868;2023-03-24T01:06:38;98053.22;;;11.02;63.30
69911;BME280;63555;49.920;17.868;2023-03-24T01:11:40;98043.34;;;10.94;63.53
69911;BME280;63555;49.920;17.868;2023-03-24T01:16:41;98041.13;;;10.90;63.44
69911;BME280;63555;49.920;17.868;2023-03-24T01:21:41;98047.78;;;10.84;63.71
69911;BME280;63555;49.920;17.868;2023-03-24T01:26:43;98036.94;;;10.77;64.01
69911;BME280;63555;49.920;17.868;2023-03-24T01:31:43;98040.25;;;10.70;64.18
69911;BME280;63555;49.920;17.868;2023-03-24T01:36:43;98039.28;;;10.71;64.42
69911;BME280;63555;49.920;17.868;2023-03-24T01:41:44;98038.72;;;10.67;64.83
69911;BME280;63555;49.920;17.868;2023-03-24T01:46:44;98037.31;;;10.63;65.12
69911;BME280;63555;49.920;17.868;2023-03-24T01:51:48;98035.91;;;10.59;65.30
69911;BME280;63555;49.920;17.868;2023-03-24T01:56:53;98025.75;;;10.55;65.08
69911;BME280;63555;49.920;17.868;2023-03-24T02:01:55;98024.63;;;10.47;65.30
69911;BME280;63555;49.920;17.868;2023-03-24T02:07:09;98020.00;;;10.40;65.90
69911;BME280;63555;49.920;17.868;2023-03-24T02:12:11;98015.38;;;10.32;65.89
69911;BME280;63555;49.920;17.868;2023-03-24T02:54:01;97972.28;;;11.41;64.80
69911;BME280;63555;49.920;17.868;2023-03-24T02:59:09;97967.97;;;11.49;64.65
69911;BME280;63555;49.920;17.868;2023-03-24T03:04:15;97965.31;;;11.59;64.19
69911;BME280;63555;49.920;17.868;2023-03-24T03:09:18;97964.31;;;11.70;64.03
69911;BME280;63555;49.920;17.868;2023-03-24T03:14:29;97973.34;;;11.87;64.26
69911;BME280;63555;49.920;17.868;2023-03-24T03:19:34;97957.56;;;12.04;63.64
69911;BME280;63555;49.920;17.868;2023-03-24T03:24:40;97957.41;;;12.16;63.83
69911;BME280;63555;49.920;17.868;2023-03-24T03:29:46;97963.78;;;12.23;63.97
69911;BME280;63555;49.920;17.868;2023-03-24T03:34:54;97958.22;;;12.26;63.59
69911;BME280;63555;49.920;17.868;2023-03-24T03:40:13;97954.72;;;12.25;63.83
69911;BME280;63555;49.920;17.868;2023-03-24T03:45:17;97947.63;;;12.26;63.64
69911;BME280;63555;49.920;17.868;2023-03-24T03:50:17;97953.91;;;12.25;64.13
69911;BME280;63555;49.920;17.868;2023-03-24T03:55:18;97943.34;;;12.25;64.13
69911;BME280;63555;49.920;17.868;2023-03-24T04:00:19;97943.88;;;12.28;64.60
69911;BME280;63555;49.920;17.868;2023-03-24T04:06:04;97944.13;;;12.35;64.83
69911;BME280;63555;49.920;17.868;2023-03-24T04:16:37;97939.94;;;12.32;64.89
69911;BME280;63555;49.920;17.868;2023-03-24T04:22:06;97932.16;;;12.31;65.08
69911;BME280;63555;49.920;17.868;2023-03-24T04:27:24;97933.16;;;12.30;65.17
69911;BME280;63555;49.920;17.868;2023-03-24T04:32:51;97935.25;;;12.26;65.34
69911;BME280;63555;49.920;17.868;2023-03-24T04:37:54;97937.34;;;12.23;65.65
69911;BME280;63555;49.920;17.868;2023-03-24T04:42:55;97938.19;;;12.23;65.91
69911;BME280;63555;49.920;17.868;2023-03-24T04:47:59;97928.75;;;12.21;66.04
69911;BME280;63555;49.920;17.868;2023-03-24T04:53:00;97923.75;;;12.18;66.18
69911;BME280;63555;49.920;17.868;2023-03-24T04:58:01;97928.19;;;12.17;66.50
69911;BME280;63555;49.920;17.868;2023-03-24T05:03:02;97928.88;;;12.19;66.15
69911;BME280;63555;49.920;17.868;2023-03-24T05:08:02;97925.81;;;12.24;66.96
69911;BME280;63555;49.920;17.868;2023-03-24T05:13:04;97922.72;;;12.28;66.55
69911;BME280;63555;49.920;17.868;2023-03-24T05:18:05;97915.19;;;12.33;66.79
69911;BME280;63555;49.920;17.868;2023-03-24T05:23:05;97915.03;;;12.35;66.53
69911;BME280;63555;49.920;17.868;2023-03-24T05:28:06;97920.31;;;12.35;67.02
69911;BME280;63555;49.920;17.868;2023-03-24T05:33:07;97932.25;;;12.39;67.03
69911;BME280;63555;49.920;17.868;2023-03-24T05:38:07;97923.06;;;12.43;66.82
69911;BME280;63555;49.920;17.868;2023-03-24T05:43:08;97927.75;;;12.49;67.15
69911;BME280;63555;49.920;17.868;2023-03-24T05:48:09;97928.97;;;12.55;66.89
69911;BME280;63555;49.920;17.868;2023-03-24T05:53:09;97929.34;;;12.60;66.88
69911;BME280;63555;49.920;17.868;2023-03-24T05:58:10;97924.59;;;12.63;66.33
69911;BME280;63555;49.920;17.868;2023-03-24T06:03:10;97921.50;;;12.68;66.57
69911;BME280;63555;49.920;17.868;2023-03-24T06:08:13;97924.69;;;12.71;66.46
69911;BME280;63555;49.920;17.868;2023-03-24T06:13:13;97923.25;;;12.77;66.23
69911;BME280;63555;49.920;17.868;2023-03-24T06:18:13;97922.34;;;12.86;65.93
69911;BME280;63555;49.920;17.868;2023-03-24T06:23:14;97920.31;;;12.98;65.83
69911;BME280;63555;49.920;17.868;2023-03-24T06:28:14;97916.31;;;13.12;65.27
69911;BME280;63555;49.920;17.868;2023-03-24T06:33:15;97912.63;;;13.22;65.37
69911;BME280;63555;49.920;17.868;2023-03-24T06:38:15;97904.59;;;13.32;65.16
69911;BME280;63555;49.920;17.868;2023-03-24T06:43:16;97909.28;;;13.38;65.04
69911;BME280;63555;49.920;17.868;2023-03-24T06:48:16;97899.25;;;13.50;65.00
69911;BME280;63555;49.920;17.868;2023-03-24T06:53:16;97902.31;;;13.63;64.48
69911;BME280;63555;49.920;17.868;2023-03-24T06:58:17;97899.41;;;13.74;64.12
69911;BME280;63555;49.920;17.868;2023-03-24T07:03:17;97899.84;;;13.87;63.93
69911;BME280;63555;49.920;17.868;2023-03-24T07:08:18;97905.38;;;14.02;63.72
69911;BME280;63555;49.920;17.868;2023-03-24T07:13:18;97900.81;;;14.20;63.33
69911;BME280;63555;49.920;17.868;2023-03-24T07:18:19;97898.88;;;14.39;63.06
69911;BME280;63555;49.920;17.868;2023-03-24T07:23:19;97899.63;;;14.57;62.61
69911;BME280;63555;49.920;17.868;2023-03-24T07:28:20;97897.72;;;14.75;62.62
69911;BME280;63555;49.920;17.868;2023-03-24T07:33:21;97904.53;;;14.94;61.99
69911;BME280;63555;49.920;17.868;2023-03-24T07:38:24;97891.59;;;15.15;61.51
69911;BME280;63555;49.920;17.868;2023-03-24T07:43:25;97880.63;;;15.43;61.30
69911;BME280;63555;49.920;17.868;2023-03-24T07:48:26;97881.31;;;15.69;61.06
69911;BME280;63555;49.920;17.868;2023-03-24T07:53:26;97884.56;;;15.96;60.49
69911;BME280;63555;49.920;17.868;2023-03-24T07:58:26;97894.25;;;16.19;59.90
69911;BME280;63555;49.920;17.868;2023-03-24T08:03:27;97884.56;;;16.35;59.54
69911;BME280;63555;49.920;17.868;2023-03-24T08:08:29;97874.84;;;16.50;58.91
69911;BME280;63555;49.920;17.868;2023-03-24T08:13:31;97873.25;;;16.72;58.46
69911;BME280;63555;49.920;17.868;2023-03-24T08:18:31;97857.22;;;17.03;58.08
69911;BME280;63555;49.920;17.868;2023-03-24T08:23:34;97845.34;;;17.28;57.19
69911;BME280;63555;49.920;17.868;2023-03-24T08:28:36;97846.59;;;17.55;56.66
69911;BME280;63555;49.920;17.868;2023-03-24T08:33:36;97821.06;;;17.75;55.96
69911;BME280;63555;49.920;17.868;2023-03-24T08:38:37;97813.69;;;18.07;55.29
69911;BME280;63555;49.920;17.868;2023-03-24T08:43:38;97812.19;;;18.34;54.41
69911;BME280;63555;49.920;17.868;2023-03-24T08:48:38;97817.03;;;18.45;54.04
69911;BME280;63555;49.920;17.868;2023-03-24T08:53:41;97816.34;;;18.58;53.73
69911;BME280;63555;49.920;17.868;2023-03-24T08:58:42;97815.56;;;18.78;53.58
69911;BME280;63555;49.920;17.868;2023-03-24T09:03:43;97815.28;;;18.95;52.96
69911;BME280;63555;49.920;17.868;2023-03-24T09:08:44;97811.94;;;18.86;52.66
69911;BME280;63555;49.920;17.868;2023-03-24T09:19:03;97811.28;;;19.05;50.99
69911;BME280;63555;49.920;17.868;2023-03-24T09:24:04;97799.94;;;19.03;50.33
69911;BME280;63555;49.920;17.868;2023-03-24T09:29:04;97781.38;;;19.17;49.76
69911;BME280;63555;49.920;17.868;2023-03-24T09:34:05;97781.59;;;19.50;49.32
69911;BME280;63555;49.920;17.868;2023-03-24T09:39:05;97784.47;;;19.83;48.62
69911;BME280;63555;49.920;17.868;2023-03-24T09:49:27;97771.91;;;20.24;47.60
69911;BME280;63555;49.920;17.868;2023-03-24T09:59:39;97770.88;;;20.25;46.88
69911;BME280;63555;49.920;17.868;2023-03-24T10:04:40;97754.88;;;20.45;46.44
69911;BME280;63555;49.920;17.868;2023-03-24T10:09:41;97753.31;;;20.97;45.44
69911;BME280;63555;49.920;17.868;2023-03-24T10:15:04;97746.69;;;21.46;43.87
69911;BME280;63555;49.920;17.868;2023-03-24T10:25:20;97751.00;;;22.18;42.85
69911;BME280;63555;49.920;17.868;2023-03-24T10:30:27;97744.91;;;22.36;42.53
69911;BME280;63555;49.920;17.868;2023-03-24T10:35:32;97733.63;;;22.90;42.09
69911;BME280;63555;49.920;17.868;2023-03-24T10:40:34;97740.09;;;23.75;40.20
69911;BME280;63555;49.920;17.868;2023-03-24T10:45:37;97725.34;;;24.26;39.26
69911;BME280;63555;49.920;17.868;2023-03-24T10:50:43;97723.69;;;24.85;37.71
69911;BME280;63555;49.920;17.868;2023-03-24T10:55:44;97728.22;;;25.26;36.73
69911;BME280;63555;49.920;17.868;2023-03-24T11:00:45;97723.16;;;25.53;36.66
69911;BME280;63555;49.920;17.868;2023-03-24T11:05:46;97715.16;;;25.70;35.79
69911;BME280;63555;49.920;17.868;2023-03-24T11:10:46;97709.19;;;25.45;35.70
69911;BME280;63555;49.920;17.868;2023-03-24T11:16:12;97705.09;;;25.42;35.33
69911;BME280;63555;49.920;17.868;2023-03-24T11:21:13;97698.25;;;25.63;35.32
69911;BME280;63555;49.920;17.868;2023-03-24T11:26:21;97687.72;;;25.38;35.41
69911;BME280;63555;49.920;17.868;2023-03-24T11:31:35;97678.56;;;26.02;34.49
69911;BME280;63555;49.920;17.868;2023-03-24T11:36:45;97682.34;;;26.01;34.20
69911;BME280;63555;49.920;17.868;2023-03-24T11:42:00;97678.22;;;25.24;34.88
69911;BME280;63555;49.920;17.868;2023-03-24T11:47:05;97677.44;;;24.47;35.58
69911;BME280;63555;49.920;17.868;2023-03-24T11:52:21;97668.56;;;24.81;34.88
69911;BME280;63555;49.920;17.868;2023-03-24T12:02:47;97658.06;;;25.78;33.33
69911;BME280;63555;49.920;17.868;2023-03-24T12:24:04;97653.50;;;24.20;33.71
69911;BME280;63555;49.920;17.868;2023-03-24T12:40:06;97658.19;;;23.83;33.12
69911;BME280;63555;49.920;17.868;2023-03-24T12:45:39;97651.97;;;22.60;34.18
69911;BME280;63555;49.920;17.868;2023-03-24T12:56:15;97640.94;;;20.95;36.76
69911;BME280;63555;49.920;17.868;2023-03-24T13:01:42;97641.97;;;20.68;36.99
69911;BME280;63555;49.920;17.868;2023-03-24T13:06:52;97632.91;;;20.69;37.24
69911;BME280;63555;49.920;17.868;2023-03-24T13:12:09;97629.00;;;20.91;37.21
69911;BME280;63555;49.920;17.868;2023-03-24T13:17:20;97633.50;;;21.75;35.94
69911;BME280;63555;49.920;17.868;2023-03-24T13:22:23;97622.56;;;21.70;36.28
69911;BME280;63555;49.920;17.868;2023-03-24T13:27:30;97618.97;;;22.21;35.79
69911;BME280;63555;49.920;17.868;2023-03-24T13:32:40;97615.03;;;21.92;36.33
69911;BME280;63555;49.920;17.868;2023-03-24T13:37:55;97607.22;;;21.39;36.87
69911;BME280;63555;49.920;17.868;2023-03-24T13:43:12;97599.94;;;20.62;38.14
69911;BME280;63555;49.920;17.868;2023-03-24T13:48:21;97593.75;;;20.09;39.42
69911;BME280;63555;49.920;17.868;2023-03-24T13:53:34;97603.03;;;20.06;39.73
69911;BME280;63555;49.920;17.868;2023-03-24T14:04:38;97610.16;;;19.86;40.66
69911;BME280;63555;49.920;17.868;2023-03-24T14:09:58;97589.09;;;19.56;40.78
69911;BME280;63555;49.920;17.868;2023-03-24T14:15:13;97597.22;;;19.28;41.51
69911;BME280;63555;49.920;17.868;2023-03-24T14:20:27;97595.41;;;19.01;41.99
69911;BME280;63555;49.920;17.868;2023-03-24T14:25:29;97600.53;;;18.61;42.59
69911;BME280;63555;49.920;17.868;2023-03-24T14:30:31;97604.00;;;18.34;43.13
69911;BME280;63555;49.920;17.868;2023-03-24T14:35:43;97606.47;;;18.14;43.84
69911;BME280;63555;49.920;17.868;2023-03-24T14:40:47;97602.72;;;18.08;43.85
69911;BME280;63555;49.920;17.868;2023-03-24T14:46:04;97609.47;;;18.04;45.00
69911;BME280;63555;49.920;17.868;2023-03-24T14:56:16;97610.50;;;16.87;51.26
69911;BME280;63555;49.920;17.868;2023-03-24T15:01:21;97619.88;;;16.08;53.34
69911;BME280;63555;49.920;17.868;2023-03-24T15:06:25;97620.13;;;15.75;53.87
69911;BME280;63555;49.920;17.868;2023-03-24T15:11:31;97625.53;;;15.51;56.10
69911;BME280;63555;49.920;17.868;2023-03-24T15:16:34;97638.25;;;14.85;59.20
69911;BME280;63555;49.920;17.868;2023-03-24T15:26:40;97648.47;;;13.58;64.15
69911;BME280;63555;49.920;17.868;2023-03-24T15:31:40;97665.44;;;13.23;66.45
69911;BME280;63555;49.920;17.868;2023-03-24T15:36:41;97659.69;;;13.02;67.68
69911;BME280;63555;49.920;17.868;2023-03-24T15:41:45;97664.84;;;12.86;68.51
69911;BME280;63555;49.920;17.868;2023-03-24T15:46:48;97671.25;;;12.75;69.57
69911;BME280;63555;49.920;17.868;2023-03-24T15:51:52;97673.38;;;12.71;69.75
69911;BME280;63555;49.920;17.868;2023-03-24T15:56:59;97657.81;;;12.68;70.15
69911;BME280;63555;49.920;17.868;2023-03-24T16:02:03;97654.50;;;12.66;70.34
69911;BME280;63555;49.920;17.868;2023-03-24T16:07:04;97643.00;;;12.50;70.92
69911;BME280;63555;49.920;17.868;2023-03-24T16:12:09;97608.31;;;12.27;73.04
69911;BME280;63555;49.920;17.868;2023-03-24T16:17:09;97625.16;;;12.08;74.12
69911;BME280;63555;49.920;17.868;2023-03-24T16:22:10;97627.50;;;11.93;74.66
69911;BME280;63555;49.920;17.868;2023-03-24T16:27:11;97613.25;;;11.86;75.97
69911;BME280;63555;49.920;17.868;2023-03-24T16:32:11;97562.84;;;11.79;76.52
69911;BME280;63555;49.920;17.868;2023-03-24T16:37:11;97543.94;;;11.74;76.90
69911;BME280;63555;49.920;17.868;2023-03-24T16:42:12;97543.94;;;11.74;76.61
69911;BME280;63555;49.920;17.868;2023-03-24T16:47:14;97577.31;;;11.75;76.71
69911;BME280;63555;49.920;17.868;2023-03-24T16:52:14;97565.03;;;11.84;76.67
69911;BME280;63555;49.920;17.868;2023-03-24T16:57:14;97578.97;;;11.94;76.66
69911;BME280;63555;49.920;17.868;2023-03-24T17:02:15;97585.34;;;12.09;76.66
69911;BME280;63555;49.920;17.868;2023-03-24T17:07:15;97577.50;;;12.18;76.47
69911;BME280;63555;49.920;17.868;2023-03-24T17:12:17;97590.25;;;12.22;76.24
69911;BME280;63555;49.920;17.868;2023-03-24T17:17:17;97620.00;;;12.24;76.42
69911;BME280;63555;49.920;17.868;2023-03-24T17:22:18;97612.59;;;12.28;76.32
69911;BME280;63555;49.920;17.868;2023-03-24T17:27:18;97639.88;;;12.28;76.22
69911;BME280;63555;49.920;17.868;2023-03-24T17:32:20;97634.72;;;12.27;75.79
69911;BME280;63555;49.920;17.868;2023-03-24T17:37:20;97604.97;;;12.25;76.22
69911;BME280;63555;49.920;17.868;2023-03-24T17:42:25;97612.59;;;12.28;76.03
69911;BME280;63555;49.920;17.868;2023-03-24T17:47:25;97594.94;;;12.28;75.76
69911;BME280;63555;49.920;17.868;2023-03-24T17:52:25;97615.47;;;12.34;75.60
69911;BME280;63555;49.920;17.868;2023-03-24T17:57:26;97605.41;;;12.38;75.23
69911;BME280;63555;49.920;17.868;2023-03-24T18:02:27;97629.72;;;12.41;75.24
69911;BME280;63555;49.920;17.868;2023-03-24T18:07:27;97649.56;;;12.46;74.80
69911;BME280;63555;49.920;17.868;2023-03-24T18:12:28;97671.41;;;12.48;75.20
69911;BME280;63555;49.920;17.868;2023-03-24T18:17:28;97682.59;;;12.41;74.64
69911;BME280;63555;49.920;17.868;2023-03-24T18:22:28;97655.63;;;12.38;74.83
69911;BME280;63555;49.920;17.868;2023-03-24T18:27:29;97663.03;;;12.34;74.58
69911;BME280;63555;49.920;17.868;2023-03-24T18:32:29;97677.84;;;12.27;75.07
69911;BME280;63555;49.920;17.868;2023-03-24T18:37:33;97678.94;;;12.17;74.85
69911;BME280;63555;49.920;17.868;2023-03-24T18:42:35;97683.66;;;12.13;75.09
69911;BME280;63555;49.920;17.868;2023-03-24T18:47:35;97698.97;;;12.09;75.39
69911;BME280;63555;49.920;17.868;2023-03-24T18:52:36;97710.16;;;12.03;75.38
69911;BME280;63555;49.920;17.868;2023-03-24T18:57:36;97714.00;;;11.91;75.45
69911;BME280;63555;49.920;17.868;2023-03-24T19:02:37;97725.78;;;11.79;75.32
69911;BME280;63555;49.920;17.868;2023-03-24T19:07:37;97717.88;;;11.69;75.81
69911;BME280;63555;49.920;17.868;2023-03-24T19:12:38;97708.59;;;11.65;76.06
69911;BME280;63555;49.920;17.868;2023-03-24T19:17:38;97705.66;;;11.68;76.31
69911;BME280;63555;49.920;17.868;2023-03-24T19:22:38;97689.34;;;11.73;75.69
69911;BME280;63555;49.920;17.868;2023-03-24T19:27:41;97691.16;;;11.72;75.65
69911;BME280;63555;49.920;17.868;2023-03-24T19:32:41;97692.44;;;11.68;75.79
69911;BME280;63555;49.920;17.868;2023-03-24T19:37:42;97707.22;;;11.61;76.25
69911;BME280;63555;49.920;17.868;2023-03-24T19:42:43;97703.66;;;11.53;76.17
69911;BME280;63555;49.920;17.868;2023-03-24T19:47:44;97710.59;;;11.54;76.44
69911;BME280;63555;49.920;17.868;2023-03-24T19:52:47;97708.34;;;11.59;76.27
69911;BME280;63555;49.920;17.868;2023-03-24T19:57:47;97709.34;;;11.58;76.70
69911;BME280;63555;49.920;17.868;2023-03-24T20:02:48;97697.56;;;11.52;76.12
69911;BME280;63555;49.920;17.868;2023-03-24T20:07:48;97694.28;;;11.40;76.29
69911;BME280;63555;49.920;17.868;2023-03-24T20:12:49;97680.72;;;11.26;76.83
69911;BME280;63555;49.920;17.868;2023-03-24T20:17:49;97678.41;;;11.13;77.06
69911;BME280;63555;49.920;17.868;2023-03-24T20:22:50;97663.16;;;11.07;77.21
69911;BME280;63555;49.920;17.868;2023-03-24T20:27:51;97672.34;;;11.03;76.99
69911;BME280;63555;49.920;17.868;2023-03-24T20:32:54;97677.09;;;10.99;77.47
69911;BME280;63555;49.920;17.868;2023-03-24T20:37:55;97680.16;;;10.95;77.41
69911;BME280;63555;49.920;17.868;2023-03-24T20:42:55;97683.19;;;11.00;77.49
69911;BME280;63555;49.920;17.868;2023-03-24T20:47:56;97674.59;;;10.98;77.24
69911;BME280;63555;49.920;17.868;2023-03-24T20:52:56;97667.41;;;10.90;77.23
69911;BME280;63555;49.920;17.868;2023-03-24T20:57:57;97672.97;;;10.87;77.58
69911;BME280;63555;49.920;17.868;2023-03-24T21:02:57;97660.34;;;10.91;77.83
69911;BME280;63555;49.920;17.868;2023-03-24T21:07:57;97665.56;;;11.00;77.71
69911;BME280;63555;49.920;17.868;2023-03-24T21:12:58;97671.22;;;11.05;77.38
69911;BME280;63555;49.920;17.868;2023-03-24T21:17:58;97658.72;;;11.07;76.96
69911;BME280;63555;49.920;17.868;2023-03-24T21:22:58;97674.03;;;11.04;77.25
69911;BME280;63555;49.920;17.868;2023-03-24T21:28:03;97678.47;;;11.03;77.67
69911;BME280;63555;49.920;17.868;2023-03-24T21:33:03;97683.56;;;11.14;77.71
69911;BME280;63555;49.920;17.868;2023-03-24T21:38:04;97690.50;;;11.15;77.63
69911;BME280;63555;49.920;17.868;2023-03-24T21:43:04;97669.63;;;11.22;77.43
69911;BME280;63555;49.920;17.868;2023-03-24T21:48:06;97679.88;;;11.25;77.14
69911;BME280;63555;49.920;17.868;2023-03-24T21:53:06;97690.88;;;11.30;77.56
69911;BME280;63555;49.920;17.868;2023-03-24T21:58:14;97684.25;;;11.44;77.71
69911;BME280;63555;49.920;17.868;2023-03-24T22:03:15;97665.28;;;11.58;77.47
69911;BME280;63555;49.920;17.868;2023-03-24T22:08:16;97654.94;;;11.65;77.08
69911;BME280;63555;49.920;17.868;2023-03-24T22:13:21;97638.94;;;11.66;77.37
69911;BME280;63555;49.920;17.868;2023-03-24T22:18:23;97645.91;;;11.67;77.09
69911;BME280;63555;49.920;17.868;2023-03-24T22:23:24;97641.88;;;11.63;76.52
69911;BME280;63555;49.920;17.868;2023-03-24T22:28:24;97636.38;;;11.57;76.53
69911;BME280;63555;49.920;17.868;2023-03-24T22:33:24;97618.66;;;11.49;76.64
69911;BME280;63555;49.920;17.868;2023-03-24T22:38:26;97618.34;;;11.52;77.04
69911;BME280;63555;49.920;17.868;2023-03-24T22:43:28;97637.34;;;11.56;76.87
69911;BME280;63555;49.920;17.868;2023-03-24T22:48:28;97638.88;;;11.58;76.98
69911;BME280;63555;49.920;17.868;2023-03-24T22:53:29;97640.38;;;11.61;76.61
69911;BME280;63555;49.920;17.868;2023-03-24T22:58:29;97628.31;;;11.58;76.52
69911;BME280;63555;49.920;17.868;2023-03-24T23:03:29;97639.47;;;11.52;76.45
69911;BME280;63555;49.920;17.868;2023-03-24T23:08:31;97637.28;;;11.47;76.85
69911;BME280;63555;49.920;17.868;2023-03-24T23:13:32;97631.16;;;11.47;77.03
69911;BME280;63555;49.920;17.868;2023-03-24T23:18:38;97641.56;;;11.48;76.79
69911;BME280;63555;49.920;17.868;2023-03-24T23:23:40;97627.09;;;11.53;77.02
69911;BME280;63555;49.920;17.868;2023-03-24T23:28:41;97625.28;;;11.53;76.56
69911;BME280;63555;49.920;17.868;2023-03-24T23:33:43;97627.25;;;11.51;76.37
69911;BME280;63555;49.920;17.868;2023-03-24T23:38:44;97634.34;;;11.51;76.43
69911;BME280;63555;49.920;17.868;2023-03-24T23:43:47;97649.06;;;11.53;76.25
69911;BME280;63555;49.920;17.868;2023-03-24T23:48:48;97633.06;;;11.55;76.35
69911;BME280;63555;49.920;17.868;2023-03-24T23:53:49;97631.09;;;11.57;76.06
69911;BME280;63555;49.920;17.868;2023-03-24T23:58:49;97625.00;;;11.56;76.09
